sensor_id;sensor_type;location;lat;lon;timestamp;P1;durP1;ratioP1;P2;durP2;ratioP2
46713;SDS011;32445;51.376;10.874;2022-08-25T00:02:50;3.17;;;2.27;;
46713;SDS011;32445;51.376;10.874;2022-08-25T00:05:50;2.80;;;2.10;;
46713;SDS011;32445;51.376;10.874;2022-08-25T00:08:50;3.40;;;1.73;;
46713;SDS011;32445;51.376;10.874;2022-08-25T00:11:51;1.83;;;1.58;;
46713;SDS011;32445;51.376;10.874;2022-08-25T00:14:53;2.88;;;2.28;;
46713;SDS011;32445;51.376;10.874;2022-08-25T00:17:54;2.22;;;2.00;;
46713;SDS011;32445;51.376;10.874;2022-08-25T00:20:54;2.13;;;1.93;;
46713;SDS011;32445;51.376;10.874;2022-08-25T00:23:54;2.50;;;2.33;;
46713;SDS011;32445;51.376;10.874;2022-08-25T00:26:56;2.50;;;2.10;;
46713;SDS011;32445;51.376;10.874;2022-08-25T00:29:58;2.78;;;2.35;;
46713;SDS011;32445;51.376;10.874;2022-08-25T00:32:59;2.42;;;2.20;;
46713;SDS011;32445;51.376;10.874;2022-08-25T00:35:59;3.53;;;2.33;;
46713;SDS011;32445;51.376;10.874;2022-08-25T00:39:00;6.40;;;2.40;;
46713;SDS011;32445;51.376;10.874;2022-08-25T00:42:00;7.13;;;1.97;;
46713;SDS011;32445;51.376;10.874;2022-08-25T00:45:02;5.30;;;2.60;;
46713;SDS011;32445;51.376;10.874;2022-08-25T00:48:05;3.28;;;2.08;;
46713;SDS011;32445;51.376;10.874;2022-08-25T00:51:06;2.57;;;1.97;;
46713;SDS011;32445;51.376;10.874;2022-08-25T00:54:10;2.30;;;2.05;;
46713;SDS011;32445;51.376;10.874;2022-08-25T00:57:17;2.65;;;2.45;;
46713;SDS011;32445;51.376;10.874;2022-08-25T01:00:24;5.28;;;2.95;;
46713;SDS011;32445;51.376;10.874;2022-08-25T01:03:27;5.18;;;2.50;;
46713;SDS011;32445;51.376;10.874;2022-08-25T01:06:29;2.60;;;2.20;;
46713;SDS011;32445;51.376;10.874;2022-08-25T01:09:35;2.75;;;2.53;;
46713;SDS011;32445;51.376;10.874;2022-08-25T01:12:35;3.47;;;2.27;;
46713;SDS011;32445;51.376;10.874;2022-08-25T01:15:36;3.05;;;2.05;;
46713;SDS011;32445;51.376;10.874;2022-08-25T01:21:45;4.65;;;2.70;;
46713;SDS011;32445;51.376;10.874;2022-08-25T01:24:51;2.50;;;2.28;;
46713;SDS011;32445;51.376;10.874;2022-08-25T01:27:58;5.20;;;2.70;;
46713;SDS011;32445;51.376;10.874;2022-08-25T01:30:59;3.90;;;2.80;;
46713;SDS011;32445;51.376;10.874;2022-08-25T01:33:59;2.43;;;2.03;;
46713;SDS011;32445;51.376;10.874;2022-08-25T01:37:00;3.92;;;2.40;;
46713;SDS011;32445;51.376;10.874;2022-08-25T01:40:02;10.70;;;2.40;;
46713;SDS011;32445;51.376;10.874;2022-08-25T01:46:30;2.90;;;2.40;;
46713;SDS011;32445;51.376;10.874;2022-08-25T01:49:32;3.08;;;2.75;;
46713;SDS011;32445;51.376;10.874;2022-08-25T01:52:35;4.57;;;2.27;;
46713;SDS011;32445;51.376;10.874;2022-08-25T01:55:42;2.80;;;2.47;;
46713;SDS011;32445;51.376;10.874;2022-08-25T01:58:52;2.75;;;1.98;;
46713;SDS011;32445;51.376;10.874;2022-08-25T02:01:52;10.43;;;2.93;;
46713;SDS011;32445;51.376;10.874;2022-08-25T02:04:53;2.77;;;2.40;;
46713;SDS011;32445;51.376;10.874;2022-08-25T02:07:53;4.50;;;2.80;;
46713;SDS011;32445;51.376;10.874;2022-08-25T02:10:53;3.07;;;2.00;;
46713;SDS011;32445;51.376;10.874;2022-08-25T02:13:54;2.87;;;2.47;;
46713;SDS011;32445;51.376;10.874;2022-08-25T02:16:55;3.28;;;3.05;;
46713;SDS011;32445;51.376;10.874;2022-08-25T02:19:56;2.83;;;2.50;;
46713;SDS011;32445;51.376;10.874;2022-08-25T02:22:56;3.00;;;2.67;;
46713;SDS011;32445;51.376;10.874;2022-08-25T02:25:57;2.63;;;2.00;;
46713;SDS011;32445;51.376;10.874;2022-08-25T02:28:57;3.33;;;2.63;;
46713;SDS011;32445;51.376;10.874;2022-08-25T02:31:58;2.83;;;2.63;;
46713;SDS011;32445;51.376;10.874;2022-08-25T02:34:58;2.43;;;2.23;;
46713;SDS011;32445;51.376;10.874;2022-08-25T02:37:59;3.13;;;2.80;;
46713;SDS011;32445;51.376;10.874;2022-08-25T02:41:00;3.40;;;2.80;;
46713;SDS011;32445;51.376;10.874;2022-08-25T02:44:07;2.53;;;2.33;;
46713;SDS011;32445;51.376;10.874;2022-08-25T02:47:08;3.67;;;2.85;;
46713;SDS011;32445;51.376;10.874;2022-08-25T02:50:08;4.00;;;2.33;;
46713;SDS011;32445;51.376;10.874;2022-08-25T02:53:09;7.32;;;2.42;;
46713;SDS011;32445;51.376;10.874;2022-08-25T02:56:10;3.73;;;2.57;;
46713;SDS011;32445;51.376;10.874;2022-08-25T02:59:11;6.10;;;2.30;;
46713;SDS011;32445;51.376;10.874;2022-08-25T03:02:11;3.30;;;2.10;;
46713;SDS011;32445;51.376;10.874;2022-08-25T03:05:13;3.20;;;2.87;;
46713;SDS011;32445;51.376;10.874;2022-08-25T03:08:14;3.05;;;2.72;;
46713;SDS011;32445;51.376;10.874;2022-08-25T03:11:15;4.30;;;2.97;;
46713;SDS011;32445;51.376;10.874;2022-08-25T03:14:16;3.05;;;2.55;;
46713;SDS011;32445;51.376;10.874;2022-08-25T03:17:17;2.90;;;2.30;;
46713;SDS011;32445;51.376;10.874;2022-08-25T03:20:18;4.50;;;2.77;;
46713;SDS011;32445;51.376;10.874;2022-08-25T03:23:18;3.15;;;2.85;;
46713;SDS011;32445;51.376;10.874;2022-08-25T03:26:19;2.85;;;2.65;;
46713;SDS011;32445;51.376;10.874;2022-08-25T03:29:38;2.53;;;2.33;;
46713;SDS011;32445;51.376;10.874;2022-08-25T03:32:42;3.42;;;3.13;;
46713;SDS011;32445;51.376;10.874;2022-08-25T03:35:42;3.65;;;3.10;;
46713;SDS011;32445;51.376;10.874;2022-08-25T03:38:43;3.40;;;3.00;;
46713;SDS011;32445;51.376;10.874;2022-08-25T03:41:43;4.23;;;2.77;;
46713;SDS011;32445;51.376;10.874;2022-08-25T03:44:44;5.07;;;2.78;;
46713;SDS011;32445;51.376;10.874;2022-08-25T03:47:46;4.50;;;2.77;;
46713;SDS011;32445;51.376;10.874;2022-08-25T03:50:48;2.83;;;2.63;;
46713;SDS011;32445;51.376;10.874;2022-08-25T03:53:51;4.82;;;2.92;;
46713;SDS011;32445;51.376;10.874;2022-08-25T03:56:51;5.32;;;2.80;;
46713;SDS011;32445;51.376;10.874;2022-08-25T03:59:52;4.82;;;3.13;;
46713;SDS011;32445;51.376;10.874;2022-08-25T04:02:53;7.00;;;2.83;;
46713;SDS011;32445;51.376;10.874;2022-08-25T04:05:53;5.20;;;3.17;;
46713;SDS011;32445;51.376;10.874;2022-08-25T04:08:54;5.97;;;3.57;;
46713;SDS011;32445;51.376;10.874;2022-08-25T04:11:57;4.22;;;3.30;;
46713;SDS011;32445;51.376;10.874;2022-08-25T04:14:57;3.60;;;3.30;;
46713;SDS011;32445;51.376;10.874;2022-08-25T04:17:58;3.73;;;2.80;;
46713;SDS011;32445;51.376;10.874;2022-08-25T04:21:05;4.00;;;3.70;;
46713;SDS011;32445;51.376;10.874;2022-08-25T04:24:08;3.72;;;3.42;;
46713;SDS011;32445;51.376;10.874;2022-08-25T04:27:11;3.53;;;2.92;;
46713;SDS011;32445;51.376;10.874;2022-08-25T04:30:11;5.83;;;3.20;;
46713;SDS011;32445;51.376;10.874;2022-08-25T04:33:12;3.55;;;3.25;;
46713;SDS011;32445;51.376;10.874;2022-08-25T04:36:13;3.87;;;3.47;;
46713;SDS011;32445;51.376;10.874;2022-08-25T04:39:14;5.65;;;3.92;;
46713;SDS011;32445;51.376;10.874;2022-08-25T04:42:16;4.65;;;3.78;;
46713;SDS011;32445;51.376;10.874;2022-08-25T04:45:16;7.43;;;3.53;;
46713;SDS011;32445;51.376;10.874;2022-08-25T04:48:17;8.87;;;4.20;;
46713;SDS011;32445;51.376;10.874;2022-08-25T04:51:19;6.80;;;4.33;;
46713;SDS011;32445;51.376;10.874;2022-08-25T04:54:22;8.02;;;4.70;;
46713;SDS011;32445;51.376;10.874;2022-08-25T04:57:23;10.23;;;4.93;;
46713;SDS011;32445;51.376;10.874;2022-08-25T05:00:23;6.90;;;5.47;;
46713;SDS011;32445;51.376;10.874;2022-08-25T05:03:23;10.43;;;5.33;;
46713;SDS011;32445;51.376;10.874;2022-08-25T05:06:24;8.27;;;6.00;;
46713;SDS011;32445;51.376;10.874;2022-08-25T05:12:26;10.20;;;5.60;;
46713;SDS011;32445;51.376;10.874;2022-08-25T05:15:27;8.00;;;4.93;;
46713;SDS011;32445;51.376;10.874;2022-08-25T05:18:46;8.63;;;5.63;;
46713;SDS011;32445;51.376;10.874;2022-08-25T05:21:47;10.97;;;5.60;;
46713;SDS011;32445;51.376;10.874;2022-08-25T05:24:47;6.20;;;3.73;;
46713;SDS011;32445;51.376;10.874;2022-08-25T05:27:47;11.23;;;5.20;;
46713;SDS011;32445;51.376;10.874;2022-08-25T05:30:48;8.93;;;4.60;;
46713;SDS011;32445;51.376;10.874;2022-08-25T05:33:49;12.80;;;4.90;;
46713;SDS011;32445;51.376;10.874;2022-08-25T05:36:50;6.07;;;4.70;;
46713;SDS011;32445;51.376;10.874;2022-08-25T05:39:50;6.73;;;5.13;;
46713;SDS011;32445;51.376;10.874;2022-08-25T05:42:50;8.03;;;5.07;;
46713;SDS011;32445;51.376;10.874;2022-08-25T05:45:54;8.50;;;4.93;;
46713;SDS011;32445;51.376;10.874;2022-08-25T05:48:55;7.00;;;5.13;;
46713;SDS011;32445;51.376;10.874;2022-08-25T05:51:56;7.83;;;4.20;;
46713;SDS011;32445;51.376;10.874;2022-08-25T05:54:56;11.13;;;5.27;;
46713;SDS011;32445;51.376;10.874;2022-08-25T05:57:56;8.87;;;4.70;;
46713;SDS011;32445;51.376;10.874;2022-08-25T06:00:58;6.45;;;5.80;;
46713;SDS011;32445;51.376;10.874;2022-08-25T06:04:22;6.03;;;5.50;;
46713;SDS011;32445;51.376;10.874;2022-08-25T06:07:23;4.63;;;3.90;;
46713;SDS011;32445;51.376;10.874;2022-08-25T06:10:24;5.37;;;4.87;;
46713;SDS011;32445;51.376;10.874;2022-08-25T06:13:25;10.27;;;4.90;;
46713;SDS011;32445;51.376;10.874;2022-08-25T06:16:25;5.33;;;4.83;;
46713;SDS011;32445;51.376;10.874;2022-08-25T06:19:25;6.40;;;5.40;;
46713;SDS011;32445;51.376;10.874;2022-08-25T06:22:26;7.33;;;5.53;;
46713;SDS011;32445;51.376;10.874;2022-08-25T06:25:26;6.73;;;5.57;;
46713;SDS011;32445;51.376;10.874;2022-08-25T06:28:27;6.67;;;5.47;;
46713;SDS011;32445;51.376;10.874;2022-08-25T06:31:27;6.13;;;5.60;;
46713;SDS011;32445;51.376;10.874;2022-08-25T06:34:27;9.17;;;5.60;;
46713;SDS011;32445;51.376;10.874;2022-08-25T06:37:29;7.80;;;6.50;;
46713;SDS011;32445;51.376;10.874;2022-08-25T06:40:29;5.82;;;5.32;;
46713;SDS011;32445;51.376;10.874;2022-08-25T06:43:30;5.93;;;5.43;;
46713;SDS011;32445;51.376;10.874;2022-08-25T06:46:32;7.75;;;5.10;;
46713;SDS011;32445;51.376;10.874;2022-08-25T06:49:32;9.10;;;6.43;;
46713;SDS011;32445;51.376;10.874;2022-08-25T06:52:33;10.20;;;7.20;;
46713;SDS011;32445;51.376;10.874;2022-08-25T06:58:35;14.52;;;12.32;;
46713;SDS011;32445;51.376;10.874;2022-08-25T07:01:36;12.10;;;10.32;;
46713;SDS011;32445;51.376;10.874;2022-08-25T07:04:37;14.33;;;11.30;;
46713;SDS011;32445;51.376;10.874;2022-08-25T07:07:37;14.50;;;13.17;;
46713;SDS011;32445;51.376;10.874;2022-08-25T07:10:37;13.33;;;12.13;;
46713;SDS011;32445;51.376;10.874;2022-08-25T07:13:38;14.13;;;11.83;;
46713;SDS011;32445;51.376;10.874;2022-08-25T07:16:39;11.93;;;10.93;;
46713;SDS011;32445;51.376;10.874;2022-08-25T07:19:41;11.55;;;10.40;;
46713;SDS011;32445;51.376;10.874;2022-08-25T07:22:41;15.10;;;11.88;;
46713;SDS011;32445;51.376;10.874;2022-08-25T07:25:42;13.53;;;12.43;;
46713;SDS011;32445;51.376;10.874;2022-08-25T07:28:43;16.73;;;11.50;;
46713;SDS011;32445;51.376;10.874;2022-08-25T07:31:43;16.88;;;11.48;;
46713;SDS011;32445;51.376;10.874;2022-08-25T07:34:44;13.18;;;11.45;;
46713;SDS011;32445;51.376;10.874;2022-08-25T07:38:03;16.75;;;12.75;;
46713;SDS011;32445;51.376;10.874;2022-08-25T07:41:05;12.77;;;11.57;;
46713;SDS011;32445;51.376;10.874;2022-08-25T07:44:06;16.57;;;10.97;;
46713;SDS011;32445;51.376;10.874;2022-08-25T07:47:08;14.50;;;12.85;;
46713;SDS011;32445;51.376;10.874;2022-08-25T07:50:09;18.23;;;12.43;;
46713;SDS011;32445;51.376;10.874;2022-08-25T07:53:11;15.05;;;13.30;;
46713;SDS011;32445;51.376;10.874;2022-08-25T07:56:14;14.85;;;13.45;;
46713;SDS011;32445;51.376;10.874;2022-08-25T07:59:15;22.58;;;13.68;;
46713;SDS011;32445;51.376;10.874;2022-08-25T08:02:15;13.67;;;12.57;;
46713;SDS011;32445;51.376;10.874;2022-08-25T08:05:16;31.90;;;13.63;;
46713;SDS011;32445;51.376;10.874;2022-08-25T08:08:16;17.07;;;13.43;;
46713;SDS011;32445;51.376;10.874;2022-08-25T08:11:18;17.13;;;12.10;;
46713;SDS011;32445;51.376;10.874;2022-08-25T08:14:29;16.70;;;13.20;;
46713;SDS011;32445;51.376;10.874;2022-08-25T08:17:30;21.27;;;12.90;;
46713;SDS011;32445;51.376;10.874;2022-08-25T08:20:30;20.92;;;11.48;;
46713;SDS011;32445;51.376;10.874;2022-08-25T08:23:32;16.63;;;11.60;;
46713;SDS011;32445;51.376;10.874;2022-08-25T08:26:33;12.33;;;11.13;;
46713;SDS011;32445;51.376;10.874;2022-08-25T08:29:34;14.83;;;12.93;;
46713;SDS011;32445;51.376;10.874;2022-08-25T08:32:35;12.90;;;11.55;;
46713;SDS011;32445;51.376;10.874;2022-08-25T08:35:36;19.43;;;11.10;;
46713;SDS011;32445;51.376;10.874;2022-08-25T08:38:36;12.93;;;11.63;;
46713;SDS011;32445;51.376;10.874;2022-08-25T08:48:37;18.02;;;11.38;;
46713;SDS011;32445;51.376;10.874;2022-08-25T08:51:57;16.73;;;10.95;;
46713;SDS011;32445;51.376;10.874;2022-08-25T08:55:02;22.33;;;12.23;;
46713;SDS011;32445;51.376;10.874;2022-08-25T08:58:10;25.13;;;14.57;;
46713;SDS011;32445;51.376;10.874;2022-08-25T09:01:23;38.78;;;13.70;;
46713;SDS011;32445;51.376;10.874;2022-08-25T09:08:02;19.20;;;11.68;;
46713;SDS011;32445;51.376;10.874;2022-08-25T09:11:06;22.50;;;11.75;;
46713;SDS011;32445;51.376;10.874;2022-08-25T09:20:49;25.52;;;11.93;;
46713;SDS011;32445;51.376;10.874;2022-08-25T09:27:22;23.90;;;11.15;;
46713;SDS011;32445;51.376;10.874;2022-08-25T09:30:39;22.83;;;10.07;;
46713;SDS011;32445;51.376;10.874;2022-08-25T09:33:50;16.83;;;10.27;;
46713;SDS011;32445;51.376;10.874;2022-08-25T09:36:54;11.70;;;9.30;;
46713;SDS011;32445;51.376;10.874;2022-08-25T09:39:55;12.70;;;9.40;;
46713;SDS011;32445;51.376;10.874;2022-08-25T09:42:56;14.63;;;9.73;;
46713;SDS011;32445;51.376;10.874;2022-08-25T09:49:13;14.02;;;10.20;;
46713;SDS011;32445;51.376;10.874;2022-08-25T09:55:32;18.45;;;10.38;;
46713;SDS011;32445;51.376;10.874;2022-08-25T09:58:33;20.90;;;10.80;;
46713;SDS011;32445;51.376;10.874;2022-08-25T10:01:33;14.85;;;9.90;;
46713;SDS011;32445;51.376;10.874;2022-08-25T10:05:19;13.32;;;9.18;;
46713;SDS011;32445;51.376;10.874;2022-08-25T10:08:39;20.05;;;9.80;;
46713;SDS011;32445;51.376;10.874;2022-08-25T10:11:50;22.02;;;9.75;;
46713;SDS011;32445;51.376;10.874;2022-08-25T10:17:51;14.30;;;8.27;;
46713;SDS011;32445;51.376;10.874;2022-08-25T10:24:01;17.63;;;10.18;;
46713;SDS011;32445;51.376;10.874;2022-08-25T10:30:46;13.50;;;9.48;;
46713;SDS011;32445;51.376;10.874;2022-08-25T10:37:03;24.67;;;9.43;;
46713;SDS011;32445;51.376;10.874;2022-08-25T10:40:14;21.48;;;9.55;;
46713;SDS011;32445;51.376;10.874;2022-08-25T10:46:46;15.57;;;8.98;;
46713;SDS011;32445;51.376;10.874;2022-08-25T10:49:55;19.42;;;9.40;;
46713;SDS011;32445;51.376;10.874;2022-08-25T10:53:10;16.98;;;9.43;;
46713;SDS011;32445;51.376;10.874;2022-08-25T10:56:26;17.17;;;9.25;;
46713;SDS011;32445;51.376;10.874;2022-08-25T11:06:01;27.15;;;9.20;;
46713;SDS011;32445;51.376;10.874;2022-08-25T11:09:09;13.65;;;9.30;;
46713;SDS011;32445;51.376;10.874;2022-08-25T11:12:20;14.05;;;8.45;;
46713;SDS011;32445;51.376;10.874;2022-08-25T11:15:39;13.23;;;9.17;;
46713;SDS011;32445;51.376;10.874;2022-08-25T11:18:53;21.42;;;9.00;;
46713;SDS011;32445;51.376;10.874;2022-08-25T11:25:27;10.32;;;7.53;;
46713;SDS011;32445;51.376;10.874;2022-08-25T11:28:35;11.63;;;7.68;;
46713;SDS011;32445;51.376;10.874;2022-08-25T11:31:51;14.73;;;7.35;;
46713;SDS011;32445;51.376;10.874;2022-08-25T11:34:52;15.18;;;7.97;;
46713;SDS011;32445;51.376;10.874;2022-08-25T11:41:05;10.73;;;8.40;;
46713;SDS011;32445;51.376;10.874;2022-08-25T11:47:42;29.77;;;8.90;;
46713;SDS011;32445;51.376;10.874;2022-08-25T11:51:11;15.65;;;8.05;;
46713;SDS011;32445;51.376;10.874;2022-08-25T11:54:41;14.27;;;7.70;;
46713;SDS011;32445;51.376;10.874;2022-08-25T11:57:43;17.25;;;8.65;;
46713;SDS011;32445;51.376;10.874;2022-08-25T12:00:45;13.65;;;7.38;;
46713;SDS011;32445;51.376;10.874;2022-08-25T12:03:46;14.38;;;8.55;;
46713;SDS011;32445;51.376;10.874;2022-08-25T12:10:09;16.05;;;7.82;;
46713;SDS011;32445;51.376;10.874;2022-08-25T12:19:56;12.60;;;6.75;;
46713;SDS011;32445;51.376;10.874;2022-08-25T12:22:57;13.55;;;7.63;;
46713;SDS011;32445;51.376;10.874;2022-08-25T12:26:07;11.38;;;6.00;;
46713;SDS011;32445;51.376;10.874;2022-08-25T12:29:42;12.15;;;6.15;;
46713;SDS011;32445;51.376;10.874;2022-08-25T12:36:00;16.50;;;6.28;;
46713;SDS011;32445;51.376;10.874;2022-08-25T12:39:22;23.15;;;6.38;;
46713;SDS011;32445;51.376;10.874;2022-08-25T12:42:34;14.80;;;6.40;;
46713;SDS011;32445;51.376;10.874;2022-08-25T12:45:38;10.73;;;6.00;;
46713;SDS011;32445;51.376;10.874;2022-08-25T12:55:03;10.80;;;5.95;;
46713;SDS011;32445;51.376;10.874;2022-08-25T12:58:05;11.20;;;6.00;;
46713;SDS011;32445;51.376;10.874;2022-08-25T13:04:19;11.32;;;5.45;;
46713;SDS011;32445;51.376;10.874;2022-08-25T13:10:54;14.23;;;5.70;;
46713;SDS011;32445;51.376;10.874;2022-08-25T13:14:16;21.73;;;5.65;;
46713;SDS011;32445;51.376;10.874;2022-08-25T13:17:25;11.20;;;5.35;;
46713;SDS011;32445;51.376;10.874;2022-08-25T13:20:32;8.90;;;5.05;;
46713;SDS011;32445;51.376;10.874;2022-08-25T13:23:34;9.07;;;4.70;;
46713;SDS011;32445;51.376;10.874;2022-08-25T13:26:38;6.43;;;5.53;;
46713;SDS011;32445;51.376;10.874;2022-08-25T13:29:50;14.13;;;6.07;;
46713;SDS011;32445;51.376;10.874;2022-08-25T13:32:54;14.63;;;5.40;;
46713;SDS011;32445;51.376;10.874;2022-08-25T13:35:56;7.68;;;5.55;;
46713;SDS011;32445;51.376;10.874;2022-08-25T13:39:17;15.07;;;5.00;;
46713;SDS011;32445;51.376;10.874;2022-08-25T13:42:19;11.30;;;5.40;;
46713;SDS011;32445;51.376;10.874;2022-08-25T13:45:21;11.35;;;5.05;;
46713;SDS011;32445;51.376;10.874;2022-08-25T13:48:32;11.02;;;5.85;;
46713;SDS011;32445;51.376;10.874;2022-08-25T13:51:37;9.57;;;5.32;;
46713;SDS011;32445;51.376;10.874;2022-08-25T13:54:40;16.83;;;4.55;;
46713;SDS011;32445;51.376;10.874;2022-08-25T13:57:42;12.70;;;5.32;;
46713;SDS011;32445;51.376;10.874;2022-08-25T14:00:47;10.23;;;4.78;;
46713;SDS011;32445;51.376;10.874;2022-08-25T14:04:19;12.30;;;4.50;;
46713;SDS011;32445;51.376;10.874;2022-08-25T14:07:27;13.43;;;4.53;;
46713;SDS011;32445;51.376;10.874;2022-08-25T14:13:38;7.85;;;4.53;;
46713;SDS011;32445;51.376;10.874;2022-08-25T14:16:51;11.75;;;4.03;;
46713;SDS011;32445;51.376;10.874;2022-08-25T14:19:57;9.25;;;3.67;;
46713;SDS011;32445;51.376;10.874;2022-08-25T14:22:59;7.10;;;3.88;;
46713;SDS011;32445;51.376;10.874;2022-08-25T14:26:04;8.23;;;3.85;;
46713;SDS011;32445;51.376;10.874;2022-08-25T14:29:05;10.85;;;5.35;;
46713;SDS011;32445;51.376;10.874;2022-08-25T14:32:05;7.65;;;3.90;;
46713;SDS011;32445;51.376;10.874;2022-08-25T14:35:06;8.15;;;4.13;;
46713;SDS011;32445;51.376;10.874;2022-08-25T14:38:08;8.70;;;4.35;;
46713;SDS011;32445;51.376;10.874;2022-08-25T14:41:10;8.77;;;4.05;;
46713;SDS011;32445;51.376;10.874;2022-08-25T14:44:11;14.65;;;3.97;;
46713;SDS011;32445;51.376;10.874;2022-08-25T14:47:13;13.27;;;4.90;;
46713;SDS011;32445;51.376;10.874;2022-08-25T14:50:13;4.78;;;2.53;;
46713;SDS011;32445;51.376;10.874;2022-08-25T14:53:14;5.25;;;2.70;;
46713;SDS011;32445;51.376;10.874;2022-08-25T14:56:14;2.55;;;2.35;;
46713;SDS011;32445;51.376;10.874;2022-08-25T14:59:14;8.68;;;3.88;;
46713;SDS011;32445;51.376;10.874;2022-08-25T15:02:15;6.55;;;3.17;;
46713;SDS011;32445;51.376;10.874;2022-08-25T15:05:22;5.55;;;3.65;;
46713;SDS011;32445;51.376;10.874;2022-08-25T15:08:26;6.85;;;2.97;;
46713;SDS011;32445;51.376;10.874;2022-08-25T15:11:50;10.75;;;3.67;;
46713;SDS011;32445;51.376;10.874;2022-08-25T15:14:52;7.70;;;3.33;;
46713;SDS011;32445;51.376;10.874;2022-08-25T15:17:53;7.60;;;3.30;;
46713;SDS011;32445;51.376;10.874;2022-08-25T15:20:54;8.80;;;3.35;;
46713;SDS011;32445;51.376;10.874;2022-08-25T15:23:56;10.20;;;3.13;;
46713;SDS011;32445;51.376;10.874;2022-08-25T15:26:57;11.18;;;3.65;;
46713;SDS011;32445;51.376;10.874;2022-08-25T15:29:58;5.07;;;3.72;;
46713;SDS011;32445;51.376;10.874;2022-08-25T15:32:59;7.13;;;3.17;;
46713;SDS011;32445;51.376;10.874;2022-08-25T15:35:59;5.53;;;3.75;;
46713;SDS011;32445;51.376;10.874;2022-08-25T15:39:00;5.50;;;2.88;;
46713;SDS011;32445;51.376;10.874;2022-08-25T15:42:01;15.38;;;3.88;;
46713;SDS011;32445;51.376;10.874;2022-08-25T15:45:03;7.55;;;3.55;;
46713;SDS011;32445;51.376;10.874;2022-08-25T15:48:04;8.60;;;3.90;;
46713;SDS011;32445;51.376;10.874;2022-08-25T15:51:04;7.78;;;4.25;;
46713;SDS011;32445;51.376;10.874;2022-08-25T15:54:07;7.38;;;3.90;;
46713;SDS011;32445;51.376;10.874;2022-08-25T15:57:07;7.93;;;3.47;;
46713;SDS011;32445;51.376;10.874;2022-08-25T16:00:08;8.52;;;3.70;;
46713;SDS011;32445;51.376;10.874;2022-08-25T16:03:10;12.40;;;4.72;;
46713;SDS011;32445;51.376;10.874;2022-08-25T16:06:12;10.95;;;4.95;;
46713;SDS011;32445;51.376;10.874;2022-08-25T16:09:12;11.32;;;4.72;;
46713;SDS011;32445;51.376;10.874;2022-08-25T16:12:12;15.23;;;4.43;;
46713;SDS011;32445;51.376;10.874;2022-08-25T16:15:13;18.58;;;5.50;;
46713;SDS011;32445;51.376;10.874;2022-08-25T16:18:13;19.05;;;5.30;;
46713;SDS011;32445;51.376;10.874;2022-08-25T16:21:15;9.63;;;4.53;;
46713;SDS011;32445;51.376;10.874;2022-08-25T16:24:19;9.85;;;5.07;;
46713;SDS011;32445;51.376;10.874;2022-08-25T16:27:20;11.32;;;4.20;;
46713;SDS011;32445;51.376;10.874;2022-08-25T16:30:20;13.00;;;4.68;;
46713;SDS011;32445;51.376;10.874;2022-08-25T16:33:20;16.90;;;4.93;;
46713;SDS011;32445;51.376;10.874;2022-08-25T16:36:22;16.33;;;4.25;;
46713;SDS011;32445;51.376;10.874;2022-08-25T16:39:24;18.67;;;5.65;;
46713;SDS011;32445;51.376;10.874;2022-08-25T16:42:24;16.33;;;5.55;;
46713;SDS011;32445;51.376;10.874;2022-08-25T16:45:25;15.50;;;4.45;;
46713;SDS011;32445;51.376;10.874;2022-08-25T16:48:25;15.10;;;5.32;;
46713;SDS011;32445;51.376;10.874;2022-08-25T16:51:26;10.65;;;4.55;;
46713;SDS011;32445;51.376;10.874;2022-08-25T16:54:27;15.07;;;5.55;;
46713;SDS011;32445;51.376;10.874;2022-08-25T16:57:50;12.63;;;6.45;;
46713;SDS011;32445;51.376;10.874;2022-08-25T17:00:53;13.85;;;6.32;;
46713;SDS011;32445;51.376;10.874;2022-08-25T17:03:54;14.00;;;5.40;;
46713;SDS011;32445;51.376;10.874;2022-08-25T17:06:56;12.45;;;5.32;;
46713;SDS011;32445;51.376;10.874;2022-08-25T17:09:56;17.10;;;5.50;;
46713;SDS011;32445;51.376;10.874;2022-08-25T17:12:57;16.02;;;5.10;;
46713;SDS011;32445;51.376;10.874;2022-08-25T17:15:57;20.42;;;6.00;;
46713;SDS011;32445;51.376;10.874;2022-08-25T17:18:59;11.65;;;5.18;;
46713;SDS011;32445;51.376;10.874;2022-08-25T17:22:05;11.60;;;5.30;;
46713;SDS011;32445;51.376;10.874;2022-08-25T17:25:06;17.45;;;5.38;;
46713;SDS011;32445;51.376;10.874;2022-08-25T17:28:07;24.42;;;5.53;;
46713;SDS011;32445;51.376;10.874;2022-08-25T17:31:07;14.70;;;5.72;;
46713;SDS011;32445;51.376;10.874;2022-08-25T17:34:10;18.95;;;5.57;;
46713;SDS011;32445;51.376;10.874;2022-08-25T17:37:12;26.83;;;6.63;;
46713;SDS011;32445;51.376;10.874;2022-08-25T17:40:12;15.38;;;6.40;;
46713;SDS011;32445;51.376;10.874;2022-08-25T17:43:13;28.65;;;6.78;;
46713;SDS011;32445;51.376;10.874;2022-08-25T17:46:13;20.13;;;5.75;;
46713;SDS011;32445;51.376;10.874;2022-08-25T17:49:14;18.70;;;5.90;;
46713;SDS011;32445;51.376;10.874;2022-08-25T17:52:16;21.67;;;6.82;;
46713;SDS011;32445;51.376;10.874;2022-08-25T17:55:17;12.77;;;5.90;;
46713;SDS011;32445;51.376;10.874;2022-08-25T17:58:22;16.38;;;5.45;;
46713;SDS011;32445;51.376;10.874;2022-08-25T18:01:23;23.75;;;6.18;;
46713;SDS011;32445;51.376;10.874;2022-08-25T18:04:25;14.70;;;5.70;;
46713;SDS011;32445;51.376;10.874;2022-08-25T18:07:26;12.52;;;5.35;;
46713;SDS011;32445;51.376;10.874;2022-08-25T18:10:27;16.17;;;5.00;;
46713;SDS011;32445;51.376;10.874;2022-08-25T18:13:27;19.65;;;5.70;;
46713;SDS011;32445;51.376;10.874;2022-08-25T18:16:28;18.00;;;5.32;;
46713;SDS011;32445;51.376;10.874;2022-08-25T18:19:28;18.73;;;6.20;;
46713;SDS011;32445;51.376;10.874;2022-08-25T18:22:28;18.50;;;6.05;;
46713;SDS011;32445;51.376;10.874;2022-08-25T18:25:29;16.88;;;5.38;;
46713;SDS011;32445;51.376;10.874;2022-08-25T18:28:29;20.30;;;5.68;;
46713;SDS011;32445;51.376;10.874;2022-08-25T18:31:31;17.75;;;5.80;;
46713;SDS011;32445;51.376;10.874;2022-08-25T18:34:31;14.95;;;6.03;;
46713;SDS011;32445;51.376;10.874;2022-08-25T18:37:32;13.25;;;6.32;;
46713;SDS011;32445;51.376;10.874;2022-08-25T18:40:55;18.05;;;6.43;;
46713;SDS011;32445;51.376;10.874;2022-08-25T18:43:59;13.77;;;5.28;;
46713;SDS011;32445;51.376;10.874;2022-08-25T18:47:00;10.57;;;5.43;;
46713;SDS011;32445;51.376;10.874;2022-08-25T18:50:00;12.32;;;5.35;;
46713;SDS011;32445;51.376;10.874;2022-08-25T18:53:01;9.52;;;5.10;;
46713;SDS011;32445;51.376;10.874;2022-08-25T18:56:02;17.58;;;6.60;;
46713;SDS011;32445;51.376;10.874;2022-08-25T18:59:02;12.93;;;5.00;;
46713;SDS011;32445;51.376;10.874;2022-08-25T19:02:03;16.15;;;5.88;;
46713;SDS011;32445;51.376;10.874;2022-08-25T19:05:04;13.10;;;5.68;;
46713;SDS011;32445;51.376;10.874;2022-08-25T19:08:05;16.45;;;5.07;;
46713;SDS011;32445;51.376;10.874;2022-08-25T19:11:08;21.92;;;5.72;;
46713;SDS011;32445;51.376;10.874;2022-08-25T19:14:08;14.40;;;5.82;;
46713;SDS011;32445;51.376;10.874;2022-08-25T19:17:11;13.30;;;5.00;;
46713;SDS011;32445;51.376;10.874;2022-08-25T19:20:11;16.25;;;6.28;;
46713;SDS011;32445;51.376;10.874;2022-08-25T19:23:12;15.48;;;5.95;;
46713;SDS011;32445;51.376;10.874;2022-08-25T19:26:12;14.05;;;6.22;;
46713;SDS011;32445;51.376;10.874;2022-08-25T19:29:13;13.23;;;6.05;;
46713;SDS011;32445;51.376;10.874;2022-08-25T19:32:16;17.13;;;4.93;;
46713;SDS011;32445;51.376;10.874;2022-08-25T19:38:23;15.05;;;6.20;;
46713;SDS011;32445;51.376;10.874;2022-08-25T19:41:24;6.95;;;4.97;;
46713;SDS011;32445;51.376;10.874;2022-08-25T19:44:26;16.67;;;5.80;;